James Reserve, California Weather observations

Data are for 10 minute period ending at time listed.
 Day   Time   Solar   Ave.   Ave.  Ave.  Vector  Max.   Baro.   Total    
  of    of     Rad.   Air    Rel.  Wind   Wind   Wind  Press.  Precip.   
Year   Day            Temp.  Hum.  Speed  Dir.   Gust                    
2015   (PST)  Kw/m2    F      %     mph   deg.    mph    mb.     in.     
-------------------------------------------------------------------------
 108    0:00   0.00   36.5    41    0.5    27     0.9   840.0    0.00 
 108    0:10   0.00   36.5    41    0.3    10     0.6   840.0    0.00 
 108    0:20   0.00   36.2    42    0.3    28     0.7   840.0    0.00 
 108    0:30   0.00   36.2    43    0.3    26     0.5   840.0    0.00 
 108    0:40   0.00   35.9    43    0.4    34     0.7   839.0    0.00 
 108    0:50   0.00   35.8    43    0.3    25     0.7   839.0    0.00 
 108    1:00   0.00   35.6    43    0.3    24     0.8   839.0    0.00 
 108    1:10   0.00   35.4    44    0.3    30     0.7   839.0    0.00 
 108    1:20   0.00   35.2    44    0.4    26     0.7   839.0    0.00 
 108    1:30   0.00   35.2    44    0.5    39     1.2   839.0    0.00 
 108    1:40   0.00   35.2    43    0.4    28     0.8   839.0    0.00 
 108    1:50   0.00   35.3    43    0.3    24     0.6   839.0    0.00 
 108    2:00   0.00   35.3    43    0.4    35     0.8   839.0    0.00 
 108    2:10   0.00   35.4    43    0.3    19     0.7   839.0    0.00 
 108    2:20   0.00   35.6    43    0.3    14     0.5   839.0    0.00 
 108    2:30   0.00   35.4    44    0.3    30     0.6   839.0    0.00 
 108    2:40   0.00   35.4    44    0.3    36     0.4   839.0    0.00 
 108    2:50   0.00   35.2    46    0.3    38     0.5   839.0    0.00 
 108    3:00   0.00   35.2    47    0.3    32     0.6   838.0    0.00 
 108    3:10   0.00   35.2    48    0.4    24     0.6   838.0    0.00 
 108    3:20   0.00   35.2    49    0.3    23     0.6   838.0    0.00 
 108    3:30   0.00   35.3    50    0.3    36     0.5   838.0    0.00 
 108    3:40   0.00   35.3    51    0.3    34     0.7   839.0    0.00 
 108    3:50   0.00   35.3    51    0.3    30     0.6   839.0    0.00 
 108    4:00   0.00   35.2    52    0.4    39     0.7   839.0    0.00 
 108    4:10   0.00   35.3    53    0.2    14     0.4   839.0    0.00 
 108    4:20   0.00   35.2    54    0.3    31     0.6   839.0    0.00 
 108    4:30   0.00   35.3    54    0.3    28     0.6   839.0    0.00 
 108    4:40   0.00   35.5    55    0.4    21     0.9   839.0    0.00 
 108    4:50   0.00   35.5    55    0.4    40     0.8   839.0    0.00 
 108    5:00   0.00   35.5    56    0.4    17     0.6   839.0    0.00 
 108    5:10   0.00   35.6    56    0.4    26     0.9   839.0    0.00 
 108    5:20   0.00   35.6    56    0.4    33     0.6   839.0    0.00 
 108    5:30   0.00   35.9    56    0.4    36     0.6   839.0    0.00 
 108    5:40   0.01   36.1    56    0.3    28     0.6   839.0    0.00 
 108    5:50   0.01   36.2    56    0.3    12     0.6   839.0    0.00 
 108    6:00   0.01   36.3    56    0.5    42     0.9   839.0    0.00 
 108    6:10   0.01   36.6    56    0.2    15     0.5   839.0    0.00 
 108    6:20   0.02   36.7    57    0.4    39     0.7   839.0    0.00 
 108    6:30   0.02   37.1    57    0.5    40     0.8   839.0    0.00 
 108    6:40   0.03   37.6    58    0.7    50     1.0   839.0    0.00 
 108    6:50   0.04   38.4    57    0.7    48     0.9   839.0    0.00 
 108    7:00   0.05   39.5    56    0.8    50     1.1   839.0    0.00 
 108    7:10   0.06   40.7    55    0.8    52     1.0   839.0    0.00 
 108    7:20   0.05   41.6    54    0.8    53     1.1   839.0    0.00 
 108    7:30   0.05   42.4    53    0.8    54     1.2   839.0    0.00 
 108    7:40   0.05   43.4    52    0.7    55     1.2   839.0    0.00 
 108    7:50   0.13   44.6    50    0.5    59     0.8   839.0    0.00 
 108    8:00   0.39   46.8    46    0.7    55     1.3   839.0    0.00 
 108    8:10   0.28   49.7    41    0.4    70     1.0   839.0    0.00 
 108    8:20   0.51   54.4    32    0.3   109     1.2   839.0    0.00 
 108    8:30   0.69   57.2    26    0.4   135     1.0   839.0    0.00 
 108    8:40   0.49   58.0    25    0.5   192     1.9   839.0    0.00 
 108    8:50   0.14   58.5    22    0.7   180     1.9   839.0    0.00 
 108    9:00   0.06   59.2    23    0.6   196     1.5   839.0    0.00 
 108    9:10   0.30   59.5    23    0.8   214     2.2   839.0    0.00 
 108    9:20   0.82   60.1    23    0.6   163     2.1   839.0    0.00 
 108    9:30   0.87   60.3    22    0.9   200     2.8   839.0    0.00 
 108    9:40   0.90   60.1    21    0.8   224     2.3   839.0    0.00 
 108    9:50   0.93   60.1    20    1.2   203     2.8   839.0    0.00 
 108   10:00   0.96   59.8    21    0.9   157     2.4   839.0    0.00 
 108   10:10   0.96   59.7    21    1.3   160     4.0   839.0    0.00 
 108   10:20   0.97   61.0    20    1.1   191     2.9   839.0    0.00 
 108   10:30   0.31   60.9    20    1.0   166     2.2   839.0    0.00 
 108   10:40   0.94   61.5    19    1.0   171     2.3   839.0    0.00 
 108   10:50   1.03   61.5    19    0.9   142     2.4   839.0    0.00 
 108   11:00   1.04   61.8    18    1.0   181     2.9   839.0    0.00 
 108   11:10   1.04   62.2    17    1.1   167     2.8   839.0    0.00 
 108   11:20   1.04   62.7    17    1.0   244     2.6   839.0    0.00 
 108   11:30   1.05   63.9    17    0.9   163     2.2   839.0    0.00 
 108   11:40   1.06   63.1    17    1.0   148     2.6   838.0    0.00 
 108   11:50   1.05   63.2    17    1.0   137     2.0   838.0    0.00 
 108   12:00   1.05   63.7    17    1.2   158     3.5   838.0    0.00 
 108   12:10   1.05   64.3    17    1.0   165     2.8   838.0    0.00 
 108   12:20   1.04   65.6    17    0.9   175     3.0   838.0    0.00 
 108   12:30   1.03   64.1    16    1.1   131     2.7   838.0    0.00 
 108   12:40   1.02   64.8    17    0.9   155     2.4   838.0    0.00 
 108   12:50   1.01   64.4    17    1.0   212     2.0   838.0    0.00 
 108   13:00   1.00   65.7    17    1.0   144     3.0   838.0    0.00 
 108   13:10   0.99   65.3    17    1.0   200     2.6   838.0    0.00 
 108   13:20   0.97   65.3    17    1.0   288     2.2   838.0    0.00 
 108   13:30   0.95   65.6    16    0.9   348     2.4   838.0    0.00 
 108   13:40   0.94   66.3    17    0.9   168     2.6   838.0    0.00 
 108   13:50   0.91   65.9    17    1.1   132     3.7   838.0    0.00 
 108   14:00   0.88   64.9    18    1.1   258     3.5   838.0    0.00 
 108   14:10   0.86   66.1    19    1.0   148     3.0   837.0    0.00 
 108   14:20   0.81   65.2    18    0.8   201     2.4   837.0    0.00 
 108   14:30   0.23   64.8    18    0.8     7     2.7   837.0    0.00 
 108   14:40   0.09   65.3    19    1.1    36     2.2   837.0    0.00 
 108   14:50   0.13   65.4    19    1.0   147     2.6   837.0    0.00 
 108   15:00   0.10   65.2    18    1.2   133     2.5   837.0    0.00 
 108   15:10   0.13   63.8    19    1.0   130     3.9   837.0    0.00 
 108   15:20   0.07   64.4    20    0.9    98     2.3   837.0    0.00 
 108   15:30   0.08   63.8    19    0.8   265     3.2   837.0    0.00 
 108   15:40   0.06   64.0    21    1.0   189     2.1   837.0    0.00 
 108   15:50   0.05   64.2    22    0.8   157     1.7   837.0    0.00 
 108   16:00   0.05   63.8    22    0.8    81     2.1   837.0    0.00 
 108   16:10   0.04   62.7    23    1.0    29     3.4   837.0    0.00 
 108   16:20   0.04   62.6    26    0.8    29     1.9   837.0    0.00 
 108   16:30   0.04   62.2    27    0.9    61     2.7   837.0    0.00 
 108   16:40   0.03   61.6    31    0.9    34     2.1   837.0    0.00 
 108   16:50   0.03   61.1    32    0.7    50     2.2   837.0    0.00 
 108   17:00   0.03   60.1    33    0.7   159     2.6   837.0    0.00 
 108   17:10   0.03   59.5    34    0.7   178     3.5   837.0    0.00 
 108   17:20   0.02   58.9    36    0.6   205     1.2   837.0    0.00 
 108   17:30   0.02   58.0    38    0.5    79     0.9   837.0    0.00 
 108   17:40   0.01   57.4    39    0.5   109     1.3   837.0    0.00 
 108   17:50   0.01   56.6    40    0.5   123     1.1   837.0    0.00 
 108   18:00   0.01   55.1    44    0.3   353     0.7   837.0    0.00 
 108   18:10   0.00   54.1    46    0.3    19     0.6   837.0    0.00 
 108   18:20   0.00   53.0    48    0.3    12     0.7   837.0    0.00 
 108   18:30   0.00   51.7    49    0.3   356     0.5   837.0    0.00 
 108   18:40   0.00   50.5    51    0.2     6     0.6   837.0    0.00 
 108   18:50   0.00   49.3    52    0.3   349     0.4   837.0    0.00 
 108   19:00   0.00   48.3    54    0.3   351     0.5   837.0    0.00 
 108   19:10   0.00   47.4    56    0.3   350     0.5   837.0    0.00 
 108   19:20   0.00   46.5    57    0.3   345     0.6   837.0    0.00 
 108   19:30   0.00   45.7    58    0.2   345     0.5   837.0    0.00 
 108   19:40   0.00   45.0    59    0.3   355     0.5   838.0    0.00 
 108   19:50   0.00   44.3    58    0.3   345     0.6   838.0    0.00 
 108   20:00   0.00   43.7    58    0.3     4     0.6   838.0    0.00 
 108   20:10   0.00   43.0    55    0.2   338     0.7   838.0    0.00 
 108   20:20   0.00   42.5    54    0.3   358     0.6   838.0    0.00 
 108   20:30   0.00   42.0    54    0.3   351     0.5   838.0    0.00 
 108   20:40   0.00   41.5    53    0.3   353     0.4   838.0    0.00 
 108   20:50   0.00   41.0    52    0.3    10     0.5   838.0    0.00 
 108   21:00   0.00   40.6    53    0.3   352     0.5   838.0    0.00 
 108   21:10   0.00   40.3    53    0.3    27     0.5   838.0    0.00 
 108   21:20   0.00   40.2    53    0.3    27     0.7   838.0    0.00 
 108   21:30   0.00   39.9    53    0.2   357     0.4   838.0    0.00 
 108   21:40   0.00   39.7    54    0.3    16     0.9   838.0    0.00 
 108   21:50   0.00   39.6    52    0.4    18     1.0   838.0    0.00 
 108   22:00   0.00   39.5    54    0.5    38     1.2   838.0    0.00 
 108   22:10   0.00   39.4    54    0.3    31     0.7   838.0    0.00 
 108   22:20   0.00   39.4    53    0.4    37     0.9   838.0    0.00 
 108   22:30   0.00   39.5    52    0.7    41     1.2   838.0    0.00 
 108   22:40   0.00   39.5    52    0.2    26     0.5   838.0    0.00 
 108   22:50   0.00   39.5    53    0.4    23     0.8   838.0    0.00 
 108   23:00   0.00   39.5    53    0.3     3     0.4   838.0    0.00 

Return to James Reserve graphs page.


Western Regional Climate Center,wrcc@dri.edu